ROMMA est une association bénévole à but non lucratif. Votre soutien est indispensable : ADHERER à ROMMA ou FAIRE un DON

La Beaume - (05, Hautes Alpes)

Buëch (820 m)   Longitude: 5° 40' 9'' E   Latitude: 44° 32' 3'' N Station partenaire n°75
 

Détail journalier du     <<     >>

Température Precipitation Humidité Pression Vent Dir Rafale Dir. rafale Ensol.
Heure (°C) (mm) (%) (hPa) (km/h) (km/h) (min)
01:00 11.8076101711ONO21ONO0
02:00 11.7074101711ONO23ONO0
03:00 11.7075101711ONO24NO0
04:00 11.707610179ONO19NO0
05:00 12.0076101713O24ONO0
06:00 11.7075101810O27OSO0
07:00 11.7075101812N27NO0
08:00 11.6075101811ONO27ONO0
09:00 11.4077101911NO27ONO0
10:00 12.8075102010N27N30
11:00 13.4074102014N32N60
12:00 13.8071102016N31N60
13:00 14.5068102019N35N60
14:00 15.3064101919N31N60
15:00 16.5059101914N24N60
16:00 16.9059101814N24N60
17:00 16.3061101913N23N60
18:00 14.3068101911N23N0
19:00 12.707410209N19N0
20:00 11.807710218N16N0
21:00 11.707810228NO15NNO0
22:00 9.408510222SE11NNO0
23:00 8.708710222ENE6N0
minuit 7.709010221NNO5NNO0

Graphique du 25-10-2019

 

Serveur OMMA